createdAt,value
2018-04-15T00:01:28.258Z,3.50
2018-04-15T00:03:56.421Z,3.43
2018-04-15T00:06:24.624Z,5.57
2018-04-15T00:08:52.789Z,3.50
2018-04-15T00:11:20.956Z,4.23
2018-04-15T00:13:49.126Z,2.97
2018-04-15T00:16:17.307Z,4.00
2018-04-15T00:18:45.475Z,4.43
2018-04-15T00:21:13.670Z,4.10
2018-04-15T00:23:41.840Z,4.60
2018-04-15T00:26:10.026Z,3.67
2018-04-15T00:28:38.193Z,4.53
2018-04-15T00:31:06.357Z,3.87
2018-04-15T00:33:34.530Z,4.33
2018-04-15T00:36:02.694Z,3.37
2018-04-15T00:38:30.857Z,3.97
2018-04-15T00:40:59.029Z,3.70
2018-04-15T00:43:27.232Z,5.23
2018-04-15T00:45:55.425Z,3.87
2018-04-15T00:48:23.607Z,3.90
2018-04-15T00:50:52.554Z,3.93
2018-04-15T00:53:20.732Z,4.03
2018-04-15T00:55:48.914Z,3.87
2018-04-15T00:58:17.082Z,3.97
2018-04-15T01:00:45.250Z,3.87
2018-04-15T01:03:13.417Z,5.17
2018-04-15T01:05:41.587Z,4.00
2018-04-15T01:08:09.841Z,4.07
2018-04-15T01:10:38.779Z,6.80
2018-04-15T01:13:06.942Z,5.87
2018-04-15T01:15:35.132Z,9.97
2018-04-15T01:18:03.296Z,4.73
2018-04-15T01:20:31.453Z,7.40
2018-04-15T01:22:59.853Z,3.63
2018-04-15T01:25:28.012Z,4.00
2018-04-15T01:27:56.203Z,5.67
2018-04-15T01:30:24.374Z,4.63
2018-04-15T01:32:52.538Z,13.47
2018-04-15T01:35:20.705Z,4.60
2018-04-15T01:37:48.888Z,7.13
2018-04-15T01:40:17.072Z,4.10
2018-04-15T01:42:45.236Z,7.30
2018-04-15T01:45:13.407Z,4.17
2018-04-15T01:47:41.573Z,4.10
2018-04-15T01:50:09.753Z,5.90
2018-04-15T01:52:37.926Z,7.53
2018-04-15T01:55:06.090Z,5.10
2018-04-15T01:57:34.253Z,7.13
2018-04-15T02:00:03.200Z,12.10
2018-04-15T02:02:31.361Z,3.90
2018-04-15T02:04:59.520Z,4.70
2018-04-15T02:07:27.695Z,6.00
2018-04-15T02:09:55.865Z,5.47
2018-04-15T02:12:24.049Z,5.60
2018-04-15T02:14:52.216Z,7.53
2018-04-15T02:17:20.395Z,5.17
2018-04-15T02:19:48.571Z,4.73
2018-04-15T02:22:16.753Z,5.63
2018-04-15T02:24:44.923Z,4.33
2018-04-15T02:27:13.091Z,6.10
2018-04-15T02:29:41.317Z,6.20
2018-04-15T02:32:10.255Z,6.13
2018-04-15T02:34:38.423Z,5.27
2018-04-15T02:37:06.605Z,4.10
2018-04-15T02:39:34.785Z,5.20
2018-04-15T02:42:02.984Z,4.93
2018-04-15T02:44:31.163Z,5.10
2018-04-15T02:46:59.360Z,4.10
2018-04-15T02:49:28.363Z,4.30
2018-04-15T02:51:57.314Z,5.73
2018-04-15T02:54:25.508Z,5.10
2018-04-15T02:56:54.425Z,6.27
2018-04-15T02:59:23.359Z,4.27
2018-04-15T03:01:51.528Z,4.20
2018-04-15T03:04:19.704Z,4.50
2018-04-15T03:06:47.889Z,4.13
2018-04-15T03:09:16.071Z,6.70
2018-04-15T03:11:44.238Z,11.03
2018-04-15T03:14:12.405Z,8.93
2018-04-15T03:16:40.599Z,6.10
2018-04-15T03:19:08.784Z,6.03
2018-04-15T03:21:36.954Z,5.50
2018-04-15T03:24:05.137Z,5.57
2018-04-15T03:26:33.303Z,4.67
2018-04-15T03:29:01.476Z,6.40
2018-04-15T03:31:29.653Z,6.00
2018-04-15T03:33:57.817Z,5.80
2018-04-15T03:36:25.976Z,6.83
2018-04-15T03:38:54.173Z,5.50
2018-04-15T03:41:22.338Z,5.80
2018-04-15T03:43:50.525Z,4.70
2018-04-15T03:46:18.724Z,5.70
2018-04-15T03:48:47.661Z,7.43
2018-04-15T03:51:15.854Z,6.60
2018-04-15T03:53:44.025Z,5.13
2018-04-15T03:56:12.185Z,6.70
2018-04-15T03:58:40.349Z,5.00
2018-04-15T04:01:08.561Z,4.47
2018-04-15T04:03:36.742Z,5.40
2018-04-15T04:06:04.909Z,6.93
2018-04-15T04:08:33.085Z,7.40
2018-04-15T04:11:01.260Z,6.50
2018-04-15T04:13:29.473Z,4.80
2018-04-15T04:15:58.428Z,8.33
2018-04-15T04:18:44.452Z,6.30
2018-04-15T04:21:31.476Z,9.33
2018-04-15T04:24:18.121Z,4.83
2018-04-15T04:26:46.292Z,6.27
2018-04-15T04:29:14.467Z,8.07
2018-04-15T04:31:42.644Z,5.83
2018-04-15T04:34:10.842Z,6.23
2018-04-15T04:36:39.011Z,7.93
2018-04-15T04:39:07.268Z,5.43
2018-04-15T04:41:35.448Z,5.00
2018-04-15T04:44:03.618Z,7.17
2018-04-15T04:46:31.801Z,5.17
2018-04-15T04:48:59.965Z,5.40
2018-04-15T04:51:28.139Z,4.43
2018-04-15T04:53:56.309Z,8.60
2018-04-15T04:56:24.486Z,7.87
2018-04-15T04:58:52.661Z,4.97
2018-04-15T05:01:20.824Z,9.10
2018-04-15T05:03:49.013Z,6.17
2018-04-15T05:06:17.192Z,4.83
2018-04-15T05:08:45.360Z,4.53
2018-04-15T05:11:13.524Z,5.43
2018-04-15T05:13:41.698Z,5.00
2018-04-15T05:16:09.887Z,5.20
2018-04-15T05:18:38.065Z,5.87
2018-04-15T05:21:06.245Z,4.90
2018-04-15T05:23:34.408Z,4.57
2018-04-15T05:26:02.586Z,6.20
2018-04-15T05:28:30.772Z,7.10
2018-04-15T05:30:59.717Z,7.27
2018-04-15T05:33:29.328Z,5.40
2018-04-15T05:35:58.268Z,5.97
2018-04-15T05:38:26.437Z,4.80
2018-04-15T05:40:54.599Z,8.53
2018-04-15T05:43:22.772Z,8.80
2018-04-15T05:45:50.933Z,9.50
2018-04-15T05:48:19.104Z,6.83
2018-04-15T05:50:47.280Z,6.47
2018-04-15T05:53:15.451Z,4.90
2018-04-15T05:55:43.631Z,6.23
2018-04-15T05:58:11.795Z,6.13
2018-04-15T06:00:39.968Z,5.30
2018-04-15T06:03:08.901Z,5.57
2018-04-15T06:05:37.076Z,5.23
2018-04-15T06:08:05.245Z,6.23
2018-04-15T06:10:33.423Z,5.30
2018-04-15T06:13:01.588Z,4.97
2018-04-15T06:15:29.743Z,8.97
2018-04-15T06:17:57.923Z,6.40
2018-04-15T06:20:26.094Z,4.90
2018-04-15T06:22:54.264Z,5.90
2018-04-15T06:25:22.434Z,4.83
2018-04-15T06:27:50.636Z,8.00
2018-04-15T06:30:18.813Z,8.00
2018-04-15T06:32:46.980Z,6.00
2018-04-15T06:35:15.154Z,6.63
2018-04-15T06:37:43.323Z,7.83
2018-04-15T06:40:11.491Z,6.40
2018-04-15T06:42:39.684Z,8.90
2018-04-15T06:45:07.868Z,5.63
2018-04-15T06:47:36.037Z,8.00
2018-04-15T06:50:04.229Z,8.53
2018-04-15T06:52:32.446Z,6.77
2018-04-15T06:55:01.389Z,7.10
2018-04-15T06:57:29.557Z,7.43
2018-04-15T06:59:57.757Z,8.73
2018-04-15T08:24:23.637Z,14.80
2018-04-15T08:26:52.577Z,8.43
2018-04-15T08:29:20.764Z,9.37
2018-04-15T08:31:48.937Z,7.93
2018-04-15T08:34:17.110Z,6.90
2018-04-15T08:36:45.301Z,8.67
2018-04-15T08:39:13.467Z,7.13
2018-04-15T08:41:41.648Z,7.60
2018-04-15T08:44:09.858Z,7.63
2018-04-15T08:46:38.046Z,8.90
2018-04-15T08:49:07.000Z,5.97
2018-04-15T08:51:35.166Z,6.97
2018-04-15T08:54:03.341Z,7.57
2018-04-15T08:56:31.518Z,7.93
2018-04-15T08:58:59.680Z,6.10
2018-04-15T09:01:27.850Z,6.00
2018-04-15T09:03:56.022Z,7.00
2018-04-15T09:06:24.235Z,7.13
2018-04-15T09:08:52.416Z,8.03
2018-04-15T09:11:20.587Z,7.90
2018-04-15T09:13:50.274Z,9.43
2018-04-15T09:16:18.446Z,9.23
2018-04-15T09:18:46.640Z,8.67
2018-04-15T09:21:14.820Z,8.63
2018-04-15T09:23:42.994Z,7.80
2018-04-15T09:26:11.192Z,8.27
2018-04-15T09:28:39.364Z,11.83
2018-04-15T09:31:12.356Z,7.30
2018-04-15T09:33:40.650Z,8.53
2018-04-15T09:36:08.820Z,12.93
2018-04-15T09:38:36.989Z,9.43
2018-04-15T09:41:05.224Z,10.90
2018-04-15T09:43:33.385Z,6.73
2018-04-15T09:46:01.566Z,6.93
2018-04-15T09:48:29.745Z,12.07
2018-04-15T09:50:58.680Z,7.37
2018-04-15T09:53:26.857Z,6.97
2018-04-15T09:55:55.030Z,11.40
2018-04-15T09:58:23.207Z,11.23
2018-04-15T10:00:51.406Z,12.87
2018-04-15T10:03:19.574Z,8.73
2018-04-15T10:05:47.764Z,11.60
2018-04-15T10:08:16.853Z,14.97
2018-04-15T10:10:45.029Z,9.33
2018-04-15T10:13:13.197Z,11.13
2018-04-15T10:15:41.360Z,9.40
2018-04-15T10:18:09.543Z,10.17
2018-04-15T10:20:37.714Z,10.43
2018-04-15T10:23:05.889Z,10.27
2018-04-15T10:25:34.080Z,13.50
2018-04-15T10:28:02.273Z,6.03
2018-04-15T10:30:30.461Z,23.97
2018-04-15T10:32:59.412Z,7.80
2018-04-15T10:35:27.585Z,6.20
2018-04-15T10:37:55.754Z,9.93
2018-04-15T10:40:23.950Z,8.83
2018-04-15T10:42:52.122Z,11.10
2018-04-15T10:45:20.309Z,8.93
2018-04-15T10:47:48.480Z,11.13
2018-04-15T10:50:16.653Z,9.80
2018-04-15T10:52:44.824Z,11.57
2018-04-15T10:55:13.007Z,9.23
2018-04-15T10:57:41.185Z,11.30
2018-04-15T11:00:09.366Z,11.53
2018-04-15T11:02:37.559Z,11.07
2018-04-15T11:05:06.544Z,13.23
2018-04-15T11:07:35.507Z,7.87
2018-04-15T11:10:03.693Z,12.03
2018-04-15T11:12:31.882Z,11.90
2018-04-15T11:15:00.839Z,15.40
2018-04-15T11:17:29.038Z,11.60
2018-04-15T11:19:57.277Z,10.20
2018-04-15T11:22:25.489Z,9.10
2018-04-15T11:24:53.672Z,11.50
2018-04-15T11:27:21.849Z,10.90
2018-04-15T11:29:50.896Z,7.57
2018-04-15T11:32:19.079Z,12.80
2018-04-15T11:34:47.275Z,11.20
2018-04-15T11:37:15.518Z,10.13
2018-04-15T11:39:43.705Z,10.53
2018-04-15T11:42:12.029Z,13.43
2018-04-15T11:44:41.020Z,17.73
2018-04-15T11:47:10.038Z,11.10
2018-04-15T11:49:38.333Z,17.20
2018-04-15T11:52:06.526Z,8.03
2018-04-15T11:54:34.806Z,10.70
2018-04-15T11:57:03.018Z,7.60
2018-04-15T11:59:31.978Z,10.90
2018-04-15T12:02:00.166Z,9.17
2018-04-15T12:04:28.353Z,10.13
2018-04-15T12:06:56.537Z,12.90
2018-04-15T12:09:25.522Z,10.60
2018-04-15T12:11:54.466Z,12.57
2018-04-15T12:14:22.725Z,11.43
2018-04-15T12:16:50.902Z,12.27
2018-04-15T12:19:19.105Z,12.90
2018-04-15T12:21:47.323Z,11.90
2018-04-15T12:24:16.260Z,15.40
2018-04-15T12:26:44.491Z,9.77
2018-04-15T12:29:13.415Z,14.80
2018-04-15T12:31:41.605Z,12.93
2018-04-15T12:34:09.881Z,11.63
2018-04-15T12:36:38.153Z,15.93
2018-04-15T12:39:07.261Z,13.23
2018-04-15T12:41:35.453Z,12.00
2018-04-15T12:44:03.624Z,10.20
2018-04-15T12:46:31.801Z,9.57
2018-04-15T12:48:59.975Z,12.60
2018-04-15T12:51:28.145Z,13.93
2018-04-15T12:53:56.325Z,12.63
2018-04-15T12:56:24.501Z,16.43
2018-04-15T12:58:52.703Z,13.00
2018-04-15T13:01:21.648Z,17.07
2018-04-15T13:03:49.841Z,11.90
2018-04-15T13:06:18.066Z,12.87
2018-04-15T13:08:47.006Z,11.90
2018-04-15T13:11:15.204Z,13.63
2018-04-15T13:13:43.392Z,13.40
2018-04-15T13:16:12.431Z,15.53
2018-04-15T13:18:40.621Z,11.70
2018-04-15T13:21:08.795Z,15.83
2018-04-15T13:23:37.001Z,14.13
2018-04-15T13:26:05.333Z,14.27
2018-04-15T13:28:33.557Z,12.30
2018-04-15T13:31:01.832Z,11.80
2018-04-15T13:33:30.018Z,19.33
2018-04-15T13:35:58.229Z,18.37
2018-04-15T13:38:26.418Z,13.90
2018-04-15T13:40:54.602Z,16.90
2018-04-15T13:43:22.820Z,12.20
2018-04-15T13:45:51.776Z,11.03
2018-04-15T13:48:20.061Z,11.23
2018-04-15T13:50:48.321Z,12.17
2018-04-15T13:53:16.543Z,12.70
2018-04-15T13:55:44.693Z,8.87
2018-04-15T13:58:12.919Z,13.33
2018-04-15T14:00:41.192Z,10.33
2018-04-15T14:03:09.535Z,12.50
2018-04-15T14:05:38.542Z,11.70
2018-04-15T14:08:07.586Z,14.60
2018-04-15T14:10:35.786Z,11.83
2018-04-15T14:13:04.064Z,14.70
2018-04-15T14:15:32.332Z,13.70
2018-04-15T14:18:00.553Z,16.10
2018-04-15T14:20:29.541Z,11.60
2018-04-15T14:22:58.501Z,14.97
2018-04-15T14:25:26.692Z,9.70
2018-04-15T14:27:55.634Z,11.23
2018-04-15T14:30:23.909Z,14.93
2018-04-15T14:32:52.122Z,13.30
2018-04-15T14:35:20.318Z,14.63
2018-04-15T14:37:49.306Z,11.47
2018-04-15T14:40:18.281Z,16.17
2018-04-15T14:42:46.465Z,12.47
2018-04-15T14:45:14.633Z,14.07
2018-04-15T14:47:42.817Z,14.97
2018-04-15T14:50:11.051Z,11.43
2018-04-15T14:52:39.944Z,14.80
2018-04-15T14:55:08.123Z,14.37
2018-04-15T14:57:36.301Z,15.43
2018-04-15T15:00:04.488Z,13.47
2018-04-15T15:02:32.724Z,16.73
2018-04-15T15:05:00.939Z,14.50
2018-04-15T15:07:29.111Z,12.33
2018-04-15T15:09:57.317Z,12.47
2018-04-15T15:12:26.288Z,15.30
2018-04-15T15:14:54.493Z,10.73
2018-04-15T15:17:23.439Z,15.37
2018-04-15T15:19:51.621Z,11.47
2018-04-15T15:22:19.795Z,14.00
2018-04-15T15:24:47.993Z,13.03
2018-04-15T15:27:16.239Z,18.00
2018-04-15T15:29:44.465Z,19.50
2018-04-15T15:32:13.445Z,17.60
2018-04-15T15:34:42.392Z,14.90
2018-04-15T15:37:10.589Z,16.20
2018-04-15T15:39:38.768Z,11.03
2018-04-15T15:42:06.980Z,18.73
2018-04-15T15:44:35.933Z,13.27
2018-04-15T15:47:04.145Z,14.70
2018-04-15T15:49:33.173Z,14.63
2018-04-15T15:52:01.360Z,13.50
2018-04-15T15:54:29.570Z,14.77
2018-04-15T15:56:57.756Z,15.60
2018-04-15T15:59:26.753Z,13.60
2018-04-15T16:01:54.930Z,14.73
2018-04-15T16:04:23.896Z,13.83
2018-04-15T16:06:52.947Z,15.97
2018-04-15T16:09:21.164Z,17.13
2018-04-15T16:11:50.275Z,20.43
2018-04-15T16:14:19.682Z,14.80
2018-04-15T16:16:48.843Z,19.87
2018-04-15T16:19:17.097Z,14.90
2018-04-15T16:21:45.981Z,17.13
2018-04-15T16:24:14.558Z,16.13
2018-04-15T16:26:42.870Z,14.57
2018-04-15T16:29:11.185Z,15.60
2018-04-15T16:31:40.154Z,21.13
2018-04-15T16:34:08.331Z,19.50
2018-04-15T16:36:36.558Z,15.93
2018-04-15T16:39:04.812Z,18.13
2018-04-15T16:41:33.770Z,19.27
2018-04-15T16:44:01.987Z,15.73
2018-04-15T16:46:30.937Z,16.30
2018-04-15T16:48:59.161Z,15.70
2018-04-15T16:51:28.141Z,21.07
2018-04-15T16:53:57.121Z,17.10
2018-04-15T16:56:25.333Z,15.67
2018-04-15T16:58:53.505Z,18.10
2018-04-15T17:01:21.678Z,20.23
2018-04-15T17:03:49.914Z,18.47
2018-04-15T17:06:18.100Z,19.27
2018-04-15T17:08:46.275Z,16.90
2018-04-15T17:11:14.506Z,18.53
2018-04-15T17:13:42.656Z,15.97
2018-04-15T17:16:10.880Z,17.23
2018-04-15T17:18:39.823Z,16.83
2018-04-15T17:21:08.019Z,17.10
2018-04-15T17:23:36.205Z,19.07
2018-04-15T17:26:04.410Z,17.63
2018-04-15T17:28:32.622Z,16.73
2018-04-15T17:31:00.797Z,21.70
2018-04-15T17:33:28.991Z,16.47
2018-04-15T17:35:57.247Z,17.10
2018-04-15T17:38:25.430Z,16.50
2018-04-15T17:40:53.685Z,17.93
2018-04-15T17:43:21.834Z,19.20
2018-04-15T17:45:50.097Z,20.17
2018-04-15T17:48:18.245Z,19.80
2018-04-15T17:50:46.476Z,22.93
2018-04-15T17:53:15.445Z,26.13
2018-04-15T17:55:43.618Z,18.30
2018-04-15T17:58:11.886Z,19.37
2018-04-15T18:00:40.070Z,17.87
2018-04-15T18:03:08.246Z,24.87
2018-04-15T18:05:36.440Z,19.70
2018-04-15T18:08:05.411Z,21.17
2018-04-15T18:10:33.603Z,21.23
2018-04-15T18:13:01.802Z,18.93
2018-04-15T18:15:31.013Z,19.07
2018-04-15T18:17:59.186Z,21.33
2018-04-15T18:20:27.436Z,24.43
2018-04-15T18:22:55.637Z,19.60
2018-04-15T18:25:23.857Z,20.40
2018-04-15T18:27:52.063Z,19.63
2018-04-15T18:30:21.034Z,19.80
2018-04-15T18:32:49.235Z,23.90
2018-04-15T18:35:18.205Z,19.83
2018-04-15T18:37:46.387Z,21.63
2018-04-15T18:40:14.591Z,18.47
2018-04-15T18:42:43.558Z,18.70
2018-04-15T18:45:11.751Z,22.70
2018-04-15T18:47:39.944Z,22.93
2018-04-15T18:50:08.233Z,24.63
2018-04-15T18:52:37.161Z,20.17
2018-04-15T18:55:05.355Z,24.27
2018-04-15T18:57:34.348Z,26.70
2018-04-15T19:00:02.576Z,20.27
2018-04-15T19:02:30.771Z,24.03
2018-04-15T19:04:58.992Z,22.07
2018-04-15T19:07:28.019Z,22.50
2018-04-15T19:09:56.216Z,21.40
2018-04-15T19:12:24.439Z,22.03
2018-04-15T19:14:53.400Z,21.97
2018-04-15T19:17:21.586Z,20.50
2018-04-15T19:19:49.811Z,19.50
2018-04-15T19:22:18.027Z,18.30
2018-04-15T19:24:46.319Z,26.13
2018-04-15T19:27:15.274Z,20.60
2018-04-15T19:29:43.607Z,21.43
2018-04-15T19:32:11.767Z,21.37
2018-04-15T19:34:40.743Z,24.13
2018-04-15T19:37:09.083Z,21.40
2018-04-15T19:39:37.344Z,32.63
2018-04-15T19:42:05.603Z,22.43
2018-04-15T19:44:33.762Z,21.87
2018-04-15T19:47:02.739Z,23.30
2018-04-15T19:49:30.963Z,21.87
2018-04-15T19:51:59.215Z,22.07
2018-04-15T19:54:28.179Z,22.47
2018-04-15T19:56:56.392Z,20.83
2018-04-15T19:59:25.342Z,23.87
2018-04-15T20:01:53.535Z,22.77
2018-04-15T20:04:21.750Z,19.27
2018-04-15T20:06:49.941Z,23.30
2018-04-15T20:09:18.169Z,23.63
2018-04-15T20:11:47.134Z,33.00
2018-04-15T20:14:15.376Z,25.87
2018-04-15T20:16:43.577Z,24.43
2018-04-15T20:19:11.791Z,26.83
2018-04-15T20:21:40.830Z,21.67
2018-04-15T20:24:09.066Z,27.83
2018-04-15T20:26:38.011Z,28.30
2018-04-15T20:29:06.297Z,26.03
2018-04-15T20:31:34.478Z,23.20
2018-04-15T20:34:02.677Z,25.30
2018-04-15T20:36:30.900Z,25.07
2018-04-15T20:38:59.077Z,28.20
2018-04-15T20:41:27.378Z,26.23
2018-04-15T20:43:55.570Z,25.57
2018-04-15T20:46:23.758Z,28.70
2018-04-15T20:48:52.758Z,28.87
2018-04-15T20:51:21.693Z,32.50
2018-04-15T20:53:49.877Z,28.00
2018-04-15T20:56:18.107Z,29.33
2018-04-15T20:58:47.053Z,23.37
2018-04-15T21:01:15.290Z,24.87
2018-04-15T21:03:44.258Z,23.03
2018-04-15T21:06:13.225Z,26.33
2018-04-15T21:08:41.433Z,28.07
2018-04-15T21:11:10.424Z,30.40
2018-04-15T21:13:39.365Z,29.70
2018-04-15T21:16:07.534Z,31.23
2018-04-15T21:18:35.720Z,27.40
2018-04-15T21:21:03.936Z,29.87
2018-04-15T21:23:32.897Z,34.87
2018-04-15T21:26:01.082Z,27.23
2018-04-15T21:28:29.315Z,31.90
2018-04-15T21:30:57.591Z,27.40
2018-04-15T21:33:25.942Z,27.67
2018-04-15T21:35:54.899Z,30.00
2018-04-15T21:38:23.138Z,26.30
2018-04-15T21:40:52.086Z,29.37
2018-04-15T21:43:20.269Z,25.73
2018-04-15T21:45:49.221Z,25.37
2018-04-15T21:48:17.414Z,26.27
2018-04-15T21:50:45.614Z,29.00
2018-04-15T21:53:14.601Z,26.53
2018-04-15T21:55:42.809Z,26.90
2018-04-15T21:58:10.973Z,26.97
2018-04-15T22:00:39.949Z,29.77
2018-04-15T22:03:08.918Z,26.23
2018-04-15T22:05:37.159Z,28.20
2018-04-15T22:08:05.344Z,24.60
2018-04-15T22:10:33.637Z,30.17
2018-04-15T22:13:08.602Z,26.93
2018-04-15T22:15:37.555Z,25.97
2018-04-15T22:18:05.767Z,26.07
2018-04-15T22:20:33.937Z,27.03
2018-04-15T22:23:02.115Z,26.97
2018-04-15T22:25:30.328Z,28.93
2018-04-15T22:27:58.541Z,26.40
2018-04-15T22:30:26.719Z,28.00
2018-04-15T22:32:54.934Z,27.43
2018-04-15T22:35:23.912Z,26.77
2018-04-15T22:37:52.449Z,28.57
2018-04-15T22:40:20.631Z,26.60
2018-04-15T22:42:48.850Z,27.20
2018-04-15T22:45:17.797Z,29.03
2018-04-15T22:47:51.572Z,26.10
2018-04-15T22:50:19.810Z,27.63
2018-04-15T22:52:47.993Z,29.27
2018-04-15T22:55:16.176Z,27.53
2018-04-15T22:57:45.114Z,29.13
2018-04-15T23:00:13.303Z,28.43
2018-04-15T23:02:41.473Z,29.73
2018-04-15T23:05:09.646Z,31.77
2018-04-15T23:07:37.833Z,29.90
2018-04-15T23:10:06.081Z,29.33
2018-04-15T23:12:34.282Z,26.53
2018-04-15T23:15:02.503Z,27.80
2018-04-15T23:17:31.455Z,30.03
2018-04-15T23:19:59.642Z,30.60
2018-04-15T23:22:27.823Z,28.77
2018-04-15T23:24:55.999Z,32.67
2018-04-15T23:27:24.180Z,29.37
2018-04-15T23:29:52.373Z,29.20
2018-04-15T23:32:21.341Z,27.70
2018-04-15T23:34:49.534Z,28.40
2018-04-15T23:37:18.504Z,29.63
2018-04-15T23:39:46.719Z,30.13
2018-04-15T23:42:14.901Z,31.53
2018-04-15T23:44:43.108Z,33.13
2018-04-15T23:47:11.291Z,31.00
2018-04-15T23:49:39.471Z,34.97
2018-04-15T23:52:07.649Z,28.73
2018-04-15T23:54:35.820Z,32.07
2018-04-15T23:57:04.058Z,33.40
2018-04-15T23:59:32.249Z,29.90
